Time;durP1;ratioP1;P1;durP2;ratioP2;P2;SDS_P1;SDS_P2;PMS_P1;PMS_P2;Temp;Humidity;BMP_temperature;BMP_pressure;BME280_temperature;BME280_humidity;BME280_pressure;Samples;Min_cycle;Max_cycle;Signal;HPM_P1;HPM_P2
2021/10/26 00:01:58;;;;;;;;;;;18.40;99.90;;;;;;4992915;28;19921;-74
2021/10/26 00:04:25;;;;;;;;;;;18.30;99.90;;;;;;4993507;28;19917;-74
2021/10/26 00:06:52;;;;;;;;;;;18.30;99.90;;;;;;4993636;28;19910;-77
2021/10/26 00:09:18;;;;;;;;;;;18.30;99.90;;;;;;4993447;28;19969;-76
2021/10/26 00:11:45;;;;;;;;;;;18.20;99.90;;;;;;4993161;28;19914;-79
2021/10/26 00:14:12;;;;;;;;;;;18.20;99.90;;;;;;4992865;28;19921;-74
2021/10/26 00:16:38;;;;;;;;;;;18.20;99.90;;;;;;4993213;28;20368;-79
2021/10/26 00:19:05;;;;;;;;;;;18.10;99.90;;;;;;4975657;28;20354;-78
2021/10/26 00:21:32;;;;;;;;;;;18.10;99.90;;;;;;4992989;28;20349;-78
2021/10/26 00:23:58;;;;;;;;;;;18.20;99.90;;;;;;4992902;28;20340;-76
2021/10/26 00:26:25;;;;;;;;;;;18.50;99.90;;;;;;4993330;28;20360;-82
2021/10/26 00:28:54;;;;;;;;;;;18.80;99.90;;;;;;4992807;28;19914;-79
2021/10/26 00:31:20;;;;;;;;;;;19.00;99.90;;;;;;4992807;28;19913;-79
2021/10/26 00:33:47;;;;;;;;;;;19.30;99.90;;;;;;4992987;28;19920;-73
2021/10/26 00:36:14;;;;;;;;;;;19.50;99.90;;;;;;4992928;28;19910;-81
2021/10/26 00:38:40;;;;;;;;;;;19.70;99.90;;;;;;4993159;28;19941;-79
2021/10/26 00:41:07;;;;;;;;;;;19.90;99.60;;;;;;4992679;28;20352;-75
2021/10/26 00:43:34;;;;;;;;;;;19.90;99.90;;;;;;4992711;28;19913;-81
2021/10/26 00:46:01;;;;;;;;;;;19.90;99.90;;;;;;4992589;28;20048;-77
2021/10/26 00:48:27;;;;;;;;;;;19.60;99.90;;;;;;4992977;28;19910;-82
2021/10/26 00:50:54;;;;;;;;;;;19.40;99.90;;;;;;4992717;28;19916;-73
2021/10/26 00:53:21;;;;;;;;;;;19.30;99.90;;;;;;4992803;28;19916;-77
2021/10/26 00:55:48;;;;;;;;;;;19.20;99.90;;;;;;4992563;28;19920;-80
2021/10/26 00:58:16;;;;;;;;;;;19.20;99.90;;;;;;4992349;28;19941;-75
2021/10/26 01:00:43;;;;;;;;;;;19.10;99.90;;;;;;4992304;28;19949;-78
2021/10/26 01:03:10;;;;;;;;;;;19.20;99.90;;;;;;4992411;28;19961;-75
2021/10/26 01:05:36;;;;;;;;;;;19.30;99.90;;;;;;4992567;28;19917;-79
2021/10/26 01:08:03;;;;;;;;;;;19.10;99.90;;;;;;4992199;28;20296;-81
2021/10/26 01:10:30;;;;;;;;;;;19.20;99.90;;;;;;4992465;28;20299;-76
2021/10/26 01:12:57;;;;;;;;;;;19.30;99.90;;;;;;4992351;28;19910;-79
2021/10/26 01:15:24;;;;;;;;;;;19.10;99.90;;;;;;4992435;28;20052;-74
2021/10/26 01:17:51;;;;;;;;;;;19.40;99.90;;;;;;4992769;28;19925;-78
2021/10/26 01:20:17;;;;;;;;;;;19.90;99.90;;;;;;4992496;28;19910;-80
2021/10/26 01:22:44;;;;;;;;;;;20.30;99.90;;;;;;4992693;28;20008;-81
2021/10/26 01:25:12;;;;;;;;;;;20.70;99.10;;;;;;4992060;28;19910;-78
2021/10/26 01:27:40;;;;;;;;;;;20.40;98.70;;;;;;4992079;28;19910;-78
2021/10/26 01:30:08;;;;;;;;;;;20.30;99.50;;;;;;4991574;28;19984;-76
2021/10/26 01:32:36;;;;;;;;;;;20.10;99.20;;;;;;4992401;28;19909;-80
2021/10/26 01:35:03;;;;;;;;;;;20.10;99.90;;;;;;4992283;28;20368;-78
2021/10/26 01:37:33;;;;;;;;;;;20.00;99.30;;;;;;4992160;28;20356;-81
2021/10/26 01:40:00;;;;;;;;;;;19.90;99.90;;;;;;4992130;28;19918;-80
2021/10/26 01:42:26;;;;;;;;;;;19.80;99.90;;;;;;4992506;28;20360;-81
2021/10/26 01:44:53;;;;;;;;;;;19.70;99.90;;;;;;4991945;28;19916;-73
2021/10/26 01:47:20;;;;;;;;;;;19.60;99.90;;;;;;4992190;28;19932;-75
2021/10/26 01:49:46;;;;;;;;;;;19.50;99.40;;;;;;4992369;28;19941;-75
2021/10/26 01:52:13;;;;;;;;;;;19.30;99.90;;;;;;4992228;28;19910;-72
2021/10/26 01:54:40;;;;;;;;;;;19.20;99.90;;;;;;4991964;28;19910;-81
2021/10/26 01:57:07;;;;;;;;;;;19.20;99.90;;;;;;4992222;28;19921;-80
2021/10/26 01:59:34;;;;;;;;;;;19.40;99.90;;;;;;4991675;28;19910;-76
2021/10/26 02:02:01;;;;;;;;;;;19.70;99.90;;;;;;4991509;28;19920;-80
2021/10/26 02:04:29;;;;;;;;;;;19.60;99.90;;;;;;4974364;28;20013;-81
2021/10/26 02:06:55;;;;;;;;;;;19.70;99.90;;;;;;4991805;28;20396;-76
2021/10/26 02:09:22;;;;;;;;;;;19.80;99.90;;;;;;4991837;28;20065;-79
2021/10/26 02:11:49;;;;;;;;;;;19.80;99.80;;;;;;4992238;28;19918;-80
2021/10/26 02:14:16;;;;;;;;;;;19.80;99.90;;;;;;4991775;28;19910;-78
2021/10/26 02:16:43;;;;;;;;;;;19.90;99.90;;;;;;4992079;28;20332;-77
2021/10/26 02:19:10;;;;;;;;;;;19.90;99.90;;;;;;4994294;28;19910;-82
2021/10/26 02:21:37;;;;;;;;;;;20.00;99.70;;;;;;4995508;28;19918;-74
2021/10/26 02:24:03;;;;;;;;;;;19.90;99.90;;;;;;4977302;28;20266;-79
2021/10/26 02:26:30;;;;;;;;;;;19.70;99.80;;;;;;4995468;28;20360;-74
2021/10/26 02:28:57;;;;;;;;;;;19.60;99.90;;;;;;4994902;28;19910;-80
2021/10/26 02:31:24;;;;;;;;;;;19.60;99.90;;;;;;4994938;28;19909;-77
2021/10/26 02:33:50;;;;;;;;;;;19.80;99.90;;;;;;4995415;28;19956;-82
2021/10/26 02:36:17;;;;;;;;;;;19.80;99.90;;;;;;4994829;28;19910;-73
2021/10/26 02:38:44;;;;;;;;;;;19.80;99.90;;;;;;4995579;28;19910;-81
2021/10/26 02:41:11;;;;;;;;;;;19.60;99.90;;;;;;4995023;28;19949;-78
2021/10/26 02:43:37;;;;;;;;;;;19.40;99.90;;;;;;4994595;28;19921;-78
2021/10/26 02:46:06;;;;;;;;;;;19.40;99.90;;;;;;4994803;28;20004;-81
2021/10/26 02:48:33;;;;;;;;;;;19.40;99.90;;;;;;4994977;28;19953;-82
2021/10/26 02:50:59;;;;;;;;;;;19.70;99.90;;;;;;4994841;28;20228;-83
2021/10/26 02:53:26;;;;;;;;;;;19.80;99.90;;;;;;4994603;28;19918;-82
2021/10/26 02:55:53;;;;;;;;;;;19.80;99.90;;;;;;4994896;28;19917;-83
2021/10/26 02:58:20;;;;;;;;;;;19.70;99.90;;;;;;4994519;28;19924;-74
2021/10/26 03:00:48;;;;;;;;;;;19.60;99.90;;;;;;4994258;28;19955;-79
2021/10/26 03:03:15;;;;;;;;;;;19.60;99.90;;;;;;4994550;28;19969;-79
2021/10/26 03:05:41;;;;;;;;;;;19.60;99.90;;;;;;4990427;28;19920;-77
2021/10/26 03:08:08;;;;;;;;;;;19.70;99.90;;;;;;4994073;28;20031;-76
2021/10/26 03:10:35;;;;;;;;;;;19.70;99.90;;;;;;4994537;28;19914;-78
2021/10/26 03:13:01;;;;;;;;;;;19.70;99.90;;;;;;4994507;28;19981;-80
2021/10/26 03:15:29;;;;;;;;;;;19.50;99.90;;;;;;4994343;28;20404;-79
2021/10/26 03:17:56;;;;;;;;;;;19.40;99.90;;;;;;4994086;28;19918;-79
2021/10/26 03:20:23;;;;;;;;;;;19.30;99.90;;;;;;4994457;28;19910;-80
2021/10/26 03:22:50;;;;;;;;;;;19.40;99.90;;;;;;4994525;28;20291;-79
2021/10/26 03:25:17;;;;;;;;;;;19.40;99.90;;;;;;4976945;28;19910;-76
2021/10/26 03:27:44;;;;;;;;;;;19.40;99.90;;;;;;4994255;28;19910;-78
2021/10/26 03:30:11;;;;;;;;;;;19.60;99.90;;;;;;4993462;28;19910;-78
2021/10/26 03:32:38;;;;;;;;;;;19.60;99.90;;;;;;4993661;28;19921;-81
2021/10/26 03:35:05;;;;;;;;;;;19.60;99.90;;;;;;4993952;28;19917;-82
2021/10/26 03:37:33;;;;;;;;;;;19.60;99.90;;;;;;4994228;28;19960;-82
2021/10/26 03:39:59;;;;;;;;;;;19.50;99.90;;;;;;4994507;28;19921;-78
2021/10/26 03:42:26;;;;;;;;;;;19.60;99.90;;;;;;4993825;28;20000;-80
2021/10/26 03:44:53;;;;;;;;;;;19.50;99.90;;;;;;4976440;28;20051;-80
2021/10/26 03:47:20;;;;;;;;;;;19.60;99.90;;;;;;4993828;28;20375;-79
2021/10/26 03:49:47;;;;;;;;;;;19.40;99.90;;;;;;4993989;28;19917;-82
2021/10/26 03:52:13;;;;;;;;;;;19.30;99.90;;;;;;4976190;28;19909;-81
2021/10/26 03:54:43;;;;;;;;;;;19.20;99.90;;;;;;4993875;28;19910;-83
2021/10/26 03:57:11;;;;;;;;;;;19.00;99.90;;;;;;4993402;28;19922;-73
2021/10/26 03:59:39;;;;;;;;;;;19.00;99.90;;;;;;4993577;28;19909;-79
2021/10/26 04:02:11;;;;;;;;;;;19.10;99.90;;;;;;4993415;28;19945;-82
2021/10/26 04:04:39;;;;;;;;;;;19.10;99.90;;;;;;4975691;28;20616;-74
2021/10/26 04:07:08;;;;;;;;;;;19.40;99.90;;;;;;4992975;28;19910;-76
2021/10/26 04:12:26;;;;;;;;;;;19.20;99.90;;;;;;4992999;28;19964;-81
2021/10/26 04:14:55;;;;;;;;;;;19.00;99.90;;;;;;4976029;28;19957;-81
2021/10/26 04:17:22;;;;;;;;;;;18.90;99.90;;;;;;4993180;28;19928;-79
2021/10/26 04:19:49;;;;;;;;;;;19.00;99.90;;;;;;4993008;28;20372;-80
2021/10/26 04:22:16;;;;;;;;;;;19.00;99.90;;;;;;4975558;28;19910;-78
2021/10/26 04:24:44;;;;;;;;;;;19.10;99.90;;;;;;4992718;28;19917;-78
2021/10/26 04:27:12;;;;;;;;;;;19.10;99.90;;;;;;4992970;28;19910;-74
2021/10/26 04:29:39;;;;;;;;;;;19.20;99.90;;;;;;4993267;28;20276;-75
2021/10/26 04:32:10;;;;;;;;;;;19.10;99.90;;;;;;4992904;28;19911;-75
2021/10/26 04:34:37;;;;;;;;;;;19.00;99.90;;;;;;4992609;28;19914;-78
2021/10/26 04:37:08;;;;;;;;;;;18.90;99.90;;;;;;4993076;28;19918;-79
2021/10/26 04:39:36;;;;;;;;;;;19.00;99.90;;;;;;4993208;28;19990;-75
2021/10/26 04:42:04;;;;;;;;;;;19.10;99.90;;;;;;4991885;28;20423;-76
2021/10/26 04:44:30;;;;;;;;;;;19.10;99.90;;;;;;4992590;28;19960;-79
2021/10/26 04:46:57;;;;;;;;;;;19.00;99.90;;;;;;4993073;28;19973;-78
2021/10/26 04:49:24;;;;;;;;;;;19.10;99.90;;;;;;4993001;28;19917;-76
2021/10/26 04:51:50;;;;;;;;;;;19.10;99.90;;;;;;4992760;28;19913;-77
2021/10/26 04:54:17;;;;;;;;;;;19.10;99.90;;;;;;4992238;28;20400;-80
2021/10/26 04:56:44;;;;;;;;;;;19.00;99.90;;;;;;4992599;28;19953;-79
2021/10/26 04:59:10;;;;;;;;;;;19.20;99.90;;;;;;4992660;28;19910;-79
2021/10/26 05:01:37;;;;;;;;;;;19.20;99.90;;;;;;4992821;28;19910;-77
2021/10/26 05:04:04;;;;;;;;;;;19.20;99.90;;;;;;4992171;28;19968;-79
2021/10/26 05:06:31;;;;;;;;;;;19.10;99.90;;;;;;4992211;28;19918;-80
2021/10/26 05:08:57;;;;;;;;;;;19.00;99.90;;;;;;4975286;28;19910;-74
2021/10/26 05:11:24;;;;;;;;;;;19.00;99.90;;;;;;4992511;28;19941;-83
2021/10/26 05:13:51;;;;;;;;;;;19.10;99.90;;;;;;4992479;28;19985;-79
2021/10/26 05:16:18;;;;;;;;;;;19.10;99.90;;;;;;4992354;28;20000;-81
2021/10/26 05:18:49;;;;;;;;;;;19.10;99.90;;;;;;4992278;28;20004;-79
2021/10/26 05:21:21;;;;;;;;;;;19.00;99.90;;;;;;4992599;28;19910;-82
2021/10/26 05:23:49;;;;;;;;;;;18.80;99.90;;;;;;4992507;28;19952;-80
2021/10/26 05:26:19;;;;;;;;;;;18.80;99.90;;;;;;4992363;28;19949;-79
2021/10/26 05:28:47;;;;;;;;;;;18.70;99.90;;;;;;4992241;28;19917;-80
2021/10/26 05:31:14;;;;;;;;;;;18.60;99.90;;;;;;4992555;28;19914;-76
2021/10/26 05:33:42;;;;;;;;;;;18.70;99.90;;;;;;4992229;28;20017;-77
2021/10/26 05:36:09;;;;;;;;;;;18.80;99.90;;;;;;4992062;28;19914;-76
2021/10/26 05:38:36;;;;;;;;;;;18.80;99.90;;;;;;4992035;28;20337;-81
2021/10/26 05:41:03;;;;;;;;;;;18.80;99.90;;;;;;4992463;28;19917;-79
2021/10/26 05:43:30;;;;;;;;;;;18.60;99.90;;;;;;4973428;28;19910;-73
2021/10/26 05:45:57;;;;;;;;;;;18.70;99.90;;;;;;4972767;28;19910;-75
2021/10/26 05:48:24;;;;;;;;;;;18.60;99.90;;;;;;4972776;28;19997;-78
2021/10/26 05:50:51;;;;;;;;;;;18.50;99.90;;;;;;4971960;28;19917;-79
2021/10/26 05:53:18;;;;;;;;;;;18.50;99.90;;;;;;4973238;28;19910;-77
2021/10/26 05:55:45;;;;;;;;;;;18.50;99.90;;;;;;4957290;28;19955;-77
2021/10/26 05:58:11;;;;;;;;;;;18.60;99.90;;;;;;4974023;28;19922;-77
2021/10/26 06:00:39;;;;;;;;;;;18.70;99.90;;;;;;4974255;28;19914;-77
2021/10/26 06:03:05;;;;;;;;;;;18.70;99.90;;;;;;4974296;28;20328;-74
2021/10/26 06:05:32;;;;;;;;;;;18.50;99.90;;;;;;4973801;28;19915;-73
2021/10/26 06:07:59;;;;;;;;;;;18.50;99.90;;;;;;4974232;28;19914;-76
2021/10/26 06:10:27;;;;;;;;;;;18.40;99.90;;;;;;4974156;28;19946;-76
2021/10/26 06:12:58;;;;;;;;;;;18.40;99.90;;;;;;4973897;28;19910;-72
2021/10/26 06:15:24;;;;;;;;;;;18.30;99.90;;;;;;4973998;28;19914;-77
2021/10/26 06:17:51;;;;;;;;;;;18.30;99.90;;;;;;4973938;28;19918;-75
2021/10/26 06:20:18;;;;;;;;;;;18.20;99.90;;;;;;4973868;28;19915;-76
2021/10/26 06:22:44;;;;;;;;;;;18.20;99.90;;;;;;4973701;28;19965;-73
2021/10/26 06:25:11;;;;;;;;;;;18.20;99.90;;;;;;4973639;28;19937;-81
2021/10/26 06:27:38;;;;;;;;;;;18.10;99.90;;;;;;4973742;28;20012;-82
2021/10/26 06:30:05;;;;;;;;;;;18.20;99.90;;;;;;4973634;28;19910;-75
2021/10/26 06:32:32;;;;;;;;;;;18.30;99.90;;;;;;4973561;28;19911;-75
2021/10/26 06:34:58;;;;;;;;;;;18.30;99.90;;;;;;4972989;28;19918;-80
2021/10/26 06:37:26;;;;;;;;;;;18.20;99.90;;;;;;4973365;28;19926;-78
2021/10/26 06:39:55;;;;;;;;;;;18.10;99.90;;;;;;4973881;28;20587;-84
2021/10/26 06:42:22;;;;;;;;;;;18.20;99.90;;;;;;4956214;28;19914;-77
2021/10/26 06:44:49;;;;;;;;;;;18.20;99.90;;;;;;4953975;28;19958;-78
2021/10/26 06:47:18;;;;;;;;;;;18.20;99.90;;;;;;4954357;28;19934;-78
2021/10/26 06:49:46;;;;;;;;;;;18.20;99.90;;;;;;4954420;28;19911;-74
2021/10/26 06:52:13;;;;;;;;;;;18.20;99.90;;;;;;4968957;28;19994;-78
2021/10/26 06:54:40;;;;;;;;;;;18.20;99.90;;;;;;4973064;28;19969;-83
2021/10/26 06:57:07;;;;;;;;;;;18.10;99.90;;;;;;4972972;28;19926;-79
2021/10/26 06:59:34;;;;;;;;;;;18.10;99.90;;;;;;4973269;28;19910;-73
2021/10/26 07:02:02;;;;;;;;;;;18.10;99.90;;;;;;4972921;28;20005;-78
2021/10/26 07:04:30;;;;;;;;;;;18.10;99.90;;;;;;4971914;28;20067;-75
2021/10/26 07:06:57;;;;;;;;;;;18.00;99.90;;;;;;4972685;28;20396;-74
2021/10/26 07:09:24;;;;;;;;;;;18.00;99.90;;;;;;4972427;28;20000;-76
2021/10/26 07:11:51;;;;;;;;;;;18.00;99.90;;;;;;4972400;28;19914;-72
2021/10/26 07:14:17;;;;;;;;;;;18.00;99.90;;;;;;4972465;28;19925;-79
2021/10/26 07:16:44;;;;;;;;;;;17.90;99.90;;;;;;4972796;28;19929;-78
2021/10/26 07:19:11;;;;;;;;;;;17.90;99.90;;;;;;4973102;28;19918;-82
2021/10/26 07:21:38;;;;;;;;;;;17.90;99.90;;;;;;4972621;28;20391;-76
2021/10/26 07:24:05;;;;;;;;;;;17.90;99.90;;;;;;4972055;28;20372;-79
2021/10/26 07:30:03;;;;;;;;;;;17.70;99.90;;;;;;4971573;28;19910;-72
2021/10/26 07:32:30;;;;;;;;;;;17.70;99.90;;;;;;4971845;28;20296;-79
2021/10/26 07:34:56;;;;;;;;;;;17.60;99.90;;;;;;4972191;28;19922;-76
2021/10/26 07:37:28;;;;;;;;;;;17.50;99.90;;;;;;4971882;28;19928;-78
2021/10/26 07:39:55;;;;;;;;;;;17.60;99.90;;;;;;4972272;28;20417;-76
2021/10/26 07:42:22;;;;;;;;;;;17.60;99.90;;;;;;4971168;28;19914;-78
2021/10/26 07:44:50;;;;;;;;;;;17.50;99.90;;;;;;4971836;28;19986;-77
2021/10/26 07:47:19;;;;;;;;;;;17.40;99.90;;;;;;4972107;28;20359;-81
2021/10/26 07:49:46;;;;;;;;;;;17.40;99.90;;;;;;4972065;28;19914;-78
2021/10/26 07:52:13;;;;;;;;;;;17.30;99.90;;;;;;4971693;28;19917;-81
2021/10/26 07:54:41;;;;;;;;;;;17.30;99.90;;;;;;4953488;28;19916;-75
2021/10/26 07:57:08;;;;;;;;;;;17.30;99.90;;;;;;4965680;28;20032;-73
2021/10/26 07:59:34;;;;;;;;;;;17.40;99.90;;;;;;4970487;28;19910;-78
2021/10/26 08:02:01;;;;;;;;;;;17.40;99.90;;;;;;4970154;28;20293;-74
2021/10/26 08:04:28;;;;;;;;;;;17.30;99.90;;;;;;4969234;28;20320;-79
2021/10/26 08:06:54;;;;;;;;;;;17.20;99.90;;;;;;4971922;28;19917;-75
2021/10/26 08:09:21;;;;;;;;;;;17.20;99.90;;;;;;4972703;28;19910;-74
2021/10/26 08:11:49;;;;;;;;;;;17.20;99.90;;;;;;4973767;28;19921;-76
2021/10/26 08:14:15;;;;;;;;;;;17.20;99.90;;;;;;4973738;28;19914;-80
2021/10/26 08:16:42;;;;;;;;;;;17.20;99.90;;;;;;4972743;28;19919;-78
2021/10/26 08:19:09;;;;;;;;;;;17.10;99.90;;;;;;4973268;28;20305;-80
2021/10/26 08:21:36;;;;;;;;;;;17.20;99.90;;;;;;4973771;28;19980;-81
2021/10/26 08:24:03;;;;;;;;;;;17.20;99.90;;;;;;4973197;28;19914;-81
2021/10/26 08:26:38;;;;;;;;;;;17.20;99.90;;;;;;4973328;28;19921;-80
2021/10/26 08:37:02;;;;;;;;;;;17.10;99.90;;;;;;4973352;28;20267;-80
2021/10/26 08:39:29;;;;;;;;;;;17.10;99.90;;;;;;4973901;28;19961;-77
2021/10/26 08:41:56;;;;;;;;;;;17.20;99.90;;;;;;4973096;28;20316;-80
2021/10/26 08:44:25;;;;;;;;;;;17.10;99.90;;;;;;4973244;28;19910;-80
2021/10/26 08:46:52;;;;;;;;;;;17.10;99.90;;;;;;4973327;28;19910;-75
2021/10/26 08:49:19;;;;;;;;;;;17.10;99.90;;;;;;4973354;28;20376;-80
2021/10/26 08:51:48;;;;;;;;;;;17.00;99.90;;;;;;4973632;28;19954;-81
2021/10/26 08:54:32;;;;;;;;;;;17.00;99.90;;;;;;4973088;28;20364;-74
2021/10/26 08:56:59;;;;;;;;;;;17.10;99.90;;;;;;4971618;28;20017;-81
2021/10/26 08:59:26;;;;;;;;;;;17.00;99.90;;;;;;4973603;28;19910;-79
2021/10/26 09:01:57;;;;;;;;;;;17.00;99.90;;;;;;4973308;28;20009;-79
2021/10/26 09:04:29;;;;;;;;;;;17.00;99.90;;;;;;4955893;28;20373;-78
2021/10/26 09:06:59;;;;;;;;;;;17.00;99.90;;;;;;4955844;28;20022;-72
2021/10/26 09:09:28;;;;;;;;;;;17.00;99.90;;;;;;4973292;28;19910;-79
2021/10/26 09:17:32;;;;;;;;;;;17.00;99.90;;;;;;4973481;28;20515;-77
2021/10/26 09:20:00;;;;;;;;;;;17.00;99.90;;;;;;4972958;28;19918;-76
2021/10/26 09:22:28;;;;;;;;;;;17.00;99.90;;;;;;4972850;28;19961;-81
2021/10/26 09:24:58;;;;;;;;;;;17.00;99.90;;;;;;4973186;28;19918;-79
2021/10/26 09:27:26;;;;;;;;;;;17.00;99.90;;;;;;4973915;28;19989;-75
2021/10/26 09:29:54;;;;;;;;;;;17.10;99.90;;;;;;4977068;28;19911;-78
2021/10/26 09:32:44;;;;;;;;;;;17.10;99.90;;;;;;4976837;28;19910;-78
2021/10/26 09:35:13;;;;;;;;;;;17.00;99.90;;;;;;4972088;28;19915;-82
2021/10/26 09:37:39;;;;;;;;;;;17.00;99.90;;;;;;4977286;28;19989;-82
2021/10/26 09:40:06;;;;;;;;;;;16.90;99.90;;;;;;4977261;28;19910;-79
2021/10/26 09:42:41;;;;;;;;;;;16.90;99.90;;;;;;4977332;28;20001;-81
2021/10/26 09:45:10;;;;;;;;;;;16.90;99.90;;;;;;4974697;28;20258;-81
2021/10/26 09:47:38;;;;;;;;;;;17.00;99.90;;;;;;4958488;28;19911;-81
2021/10/26 09:50:06;;;;;;;;;;;16.90;99.90;;;;;;4957491;28;19960;-79
2021/10/26 09:52:33;;;;;;;;;;;16.90;99.90;;;;;;4957998;29;20357;-81
2021/10/26 09:55:14;;;;;;;;;;;16.90;99.90;;;;;;4956820;29;19925;-82
2021/10/26 09:57:47;;;;;;;;;;;16.90;99.90;;;;;;4956520;28;20013;-82
2021/10/26 10:00:17;;;;;;;;;;;16.90;99.90;;;;;;4957331;28;19914;-79
2021/10/26 10:02:55;;;;;;;;;;;16.90;99.90;;;;;;4957147;29;20301;-80
2021/10/26 10:05:24;;;;;;;;;;;17.00;99.90;;;;;;4957569;29;19918;-81
2021/10/26 10:07:51;;;;;;;;;;;17.00;99.90;;;;;;4955836;28;20274;-78
2021/10/26 10:10:18;;;;;;;;;;;17.10;99.90;;;;;;4975020;28;19914;-79
2021/10/26 10:12:45;;;;;;;;;;;17.20;99.90;;;;;;4975925;28;20261;-79
2021/10/26 10:15:14;;;;;;;;;;;17.20;99.90;;;;;;4976245;28;20328;-79
2021/10/26 10:17:42;;;;;;;;;;;17.20;99.90;;;;;;4976036;28;19941;-79
2021/10/26 10:20:10;;;;;;;;;;;17.30;99.90;;;;;;4975928;28;20284;-78
2021/10/26 10:22:38;;;;;;;;;;;17.30;99.90;;;;;;4975763;28;19910;-78
2021/10/26 10:25:07;;;;;;;;;;;17.30;99.90;;;;;;4975732;28;20373;-78
2021/10/26 10:27:38;;;;;;;;;;;17.30;99.90;;;;;;4976148;28;19910;-81
2021/10/26 10:30:05;;;;;;;;;;;17.40;99.90;;;;;;4975722;28;19957;-80
2021/10/26 10:32:32;;;;;;;;;;;17.40;99.90;;;;;;4976130;28;19917;-73
2021/10/26 10:35:00;;;;;;;;;;;17.40;99.90;;;;;;4976076;28;19914;-79
2021/10/26 10:37:31;;;;;;;;;;;17.40;99.90;;;;;;4975632;28;19918;-81
2021/10/26 10:39:59;;;;;;;;;;;17.40;99.90;;;;;;4974060;28;20321;-74
2021/10/26 10:42:26;;;;;;;;;;;17.30;99.90;;;;;;4975654;28;19961;-75
2021/10/26 10:44:55;;;;;;;;;;;17.30;99.90;;;;;;4975789;28;19910;-81
2021/10/26 10:47:41;;;;;;;;;;;17.30;99.90;;;;;;4975730;28;19910;-79
2021/10/26 10:50:20;;;;;;;;;;;17.30;99.90;;;;;;4975347;28;20026;-81
2021/10/26 10:53:05;;;;;;;;;;;17.30;99.90;;;;;;4974990;28;19910;-80
2021/10/26 10:55:32;;;;;;;;;;;17.30;99.90;;;;;;4973424;28;19917;-78
2021/10/26 10:58:34;;;;;;;;;;;17.20;99.90;;;;;;4973242;28;19918;-76
2021/10/26 11:01:18;;;;;;;;;;;17.20;99.90;;;;;;4913607;29;19922;-78
2021/10/26 11:03:45;;;;;;;;;;;17.20;99.90;;;;;;4951278;28;20519;-78
2021/10/26 11:06:31;;;;;;;;;;;17.10;99.90;;;;;;4973390;28;20268;-81
2021/10/26 11:08:58;;;;;;;;;;;17.20;99.90;;;;;;4954744;28;19921;-77
2021/10/26 11:11:25;;;;;;;;;;;17.20;99.90;;;;;;4973109;28;20373;-77
2021/10/26 11:14:11;;;;;;;;;;;17.20;99.90;;;;;;4973113;28;20276;-76
2021/10/26 11:16:38;;;;;;;;;;;17.20;99.90;;;;;;4973144;28;20340;-78
2021/10/26 11:19:05;;;;;;;;;;;17.20;99.90;;;;;;4973472;28;20280;-76
2021/10/26 11:21:31;;;;;;;;;;;17.20;99.90;;;;;;4972999;28;19920;-73
2021/10/26 11:23:58;;;;;;;;;;;17.20;99.90;;;;;;4972154;28;19921;-73
2021/10/26 11:26:47;;;;;;;;;;;17.20;99.90;;;;;;4973008;28;19910;-75
2021/10/26 11:29:26;;;;;;;;;;;17.20;99.90;;;;;;4965177;28;19934;-75
2021/10/26 11:31:53;;;;;;;;;;;17.20;99.90;;;;;;4972668;28;19984;-77
2021/10/26 11:34:24;;;;;;;;;;;17.20;99.90;;;;;;4972545;28;20337;-72
2021/10/26 11:36:58;;;;;;;;;;;17.20;99.90;;;;;;4972520;28;20237;-80
2021/10/26 11:39:25;;;;;;;;;;;17.20;99.90;;;;;;4972118;28;19910;-74
2021/10/26 11:41:52;;;;;;;;;;;17.10;99.90;;;;;;4972688;28;20419;-77
2021/10/26 11:44:20;;;;;;;;;;;17.20;99.90;;;;;;4972622;28;19918;-80
2021/10/26 11:46:48;;;;;;;;;;;17.20;99.90;;;;;;4972616;28;19914;-74
2021/10/26 11:49:23;;;;;;;;;;;17.20;99.90;;;;;;4972733;28;19942;-74
2021/10/26 11:51:58;;;;;;;;;;;17.20;99.90;;;;;;4971711;28;20017;-76
2021/10/26 11:54:28;;;;;;;;;;;17.30;99.90;;;;;;4972578;28;19921;-78
2021/10/26 11:56:56;;;;;;;;;;;17.30;99.90;;;;;;4972327;28;19977;-78
2021/10/26 11:59:24;;;;;;;;;;;17.30;99.90;;;;;;4972528;28;20407;-75
2021/10/26 12:01:54;;;;;;;;;;;17.30;99.90;;;;;;4971841;28;20563;-80
2021/10/26 12:04:26;;;;;;;;;;;17.30;99.90;;;;;;4972076;28;20304;-78
2021/10/26 12:07:00;;;;;;;;;;;17.30;99.90;;;;;;4971972;28;19910;-80
2021/10/26 12:09:28;;;;;;;;;;;17.30;99.90;;;;;;4972204;28;19910;-74
2021/10/26 12:11:57;;;;;;;;;;;17.30;99.90;;;;;;4972548;28;19932;-76
2021/10/26 12:14:24;;;;;;;;;;;17.30;99.90;;;;;;4972674;28;20398;-74
2021/10/26 12:17:11;;;;;;;;;;;17.30;99.90;;;;;;4972773;28;19922;-79
2021/10/26 12:19:46;;;;;;;;;;;17.30;99.90;;;;;;4972907;28;19910;-78
2021/10/26 12:22:17;;;;;;;;;;;17.30;99.90;;;;;;4972299;28;19911;-82
2021/10/26 12:24:46;;;;;;;;;;;17.30;99.90;;;;;;4972624;28;19910;-83
2021/10/26 12:27:14;;;;;;;;;;;17.30;99.90;;;;;;4972398;28;19914;-82
2021/10/26 12:29:43;;;;;;;;;;;17.30;99.90;;;;;;4972359;28;19910;-81
2021/10/26 12:32:11;;;;;;;;;;;17.30;99.90;;;;;;4972365;28;19917;-79
2021/10/26 12:34:42;;;;;;;;;;;17.30;99.90;;;;;;4972149;28;19910;-82
2021/10/26 12:37:21;;;;;;;;;;;17.30;99.90;;;;;;4972136;28;19924;-83
2021/10/26 12:39:51;;;;;;;;;;;17.30;99.90;;;;;;4972335;28;19920;-82
2021/10/26 12:42:47;;;;;;;;;;;17.30;99.90;;;;;;4972408;28;19952;-82
2021/10/26 12:45:15;;;;;;;;;;;17.30;99.90;;;;;;4952145;28;19917;-82
2021/10/26 12:47:55;;;;;;;;;;;17.30;99.90;;;;;;4972090;28;19918;-80
2021/10/26 12:50:30;;;;;;;;;;;17.30;99.90;;;;;;4971994;28;20400;-81
2021/10/26 12:53:13;;;;;;;;;;;17.30;99.90;;;;;;4971517;28;19996;-82
2021/10/26 12:55:41;;;;;;;;;;;17.30;99.90;;;;;;4954427;28;20594;-76
2021/10/26 12:58:25;;;;;;;;;;;17.40;99.90;;;;;;4971588;28;20280;-83
2021/10/26 13:00:52;;;;;;;;;;;17.30;99.90;;;;;;4972008;28;19911;-73
2021/10/26 13:03:22;;;;;;;;;;;17.30;99.90;;;;;;4971131;28;19926;-79
2021/10/26 13:05:51;;;;;;;;;;;17.30;99.90;;;;;;4972020;28;19928;-80
2021/10/26 13:08:21;;;;;;;;;;;17.30;99.90;;;;;;4972158;28;20293;-81
2021/10/26 13:10:51;;;;;;;;;;;17.30;99.90;;;;;;4971905;28;19945;-80
2021/10/26 13:13:18;;;;;;;;;;;17.30;99.90;;;;;;4971807;28;19989;-79
2021/10/26 13:15:47;;;;;;;;;;;17.30;99.90;;;;;;4971822;28;20284;-80
2021/10/26 13:18:22;;;;;;;;;;;17.30;99.90;;;;;;4971231;28;19922;-79
2021/10/26 13:20:52;;;;;;;;;;;17.30;99.90;;;;;;4971869;28;20365;-80
2021/10/26 13:23:26;;;;;;;;;;;17.30;99.90;;;;;;4971778;28;20030;-80
2021/10/26 13:25:55;;;;;;;;;;;17.20;99.90;;;;;;4971540;28;19914;-76
2021/10/26 13:28:24;;;;;;;;;;;17.20;99.90;;;;;;4954091;28;19914;-77
2021/10/26 13:31:00;;;;;;;;;;;17.30;99.90;;;;;;4971756;28;20004;-80
2021/10/26 13:33:28;;;;;;;;;;;17.30;99.90;;;;;;4971723;28;19993;-79
2021/10/26 13:35:55;;;;;;;;;;;17.30;99.90;;;;;;4971775;28;20412;-80
2021/10/26 13:38:23;;;;;;;;;;;17.30;99.90;;;;;;4971478;28;19922;-79
2021/10/26 13:40:50;;;;;;;;;;;17.30;99.90;;;;;;4971483;28;19914;-79
2021/10/26 13:43:17;;;;;;;;;;;17.30;99.90;;;;;;4971434;28;20004;-81
2021/10/26 13:45:44;;;;;;;;;;;17.30;99.90;;;;;;4971145;28;19910;-76
2021/10/26 13:48:13;;;;;;;;;;;17.30;99.90;;;;;;4971280;28;19910;-79
2021/10/26 13:50:41;;;;;;;;;;;17.30;99.90;;;;;;4971470;28;20567;-80
2021/10/26 13:53:10;;;;;;;;;;;17.30;99.90;;;;;;4971471;28;20060;-80
2021/10/26 13:55:43;;;;;;;;;;;17.40;99.90;;;;;;4971001;28;20006;-79
2021/10/26 13:58:10;;;;;;;;;;;17.40;99.90;;;;;;4971088;28;20281;-80
2021/10/26 14:00:39;;;;;;;;;;;17.30;99.90;;;;;;4971425;28;19925;-80
2021/10/26 14:03:09;;;;;;;;;;;17.40;99.90;;;;;;4970999;28;19930;-80
2021/10/26 14:05:36;;;;;;;;;;;17.30;99.90;;;;;;4971235;28;20327;-80
2021/10/26 14:08:04;;;;;;;;;;;17.20;99.90;;;;;;4970984;28;19947;-76
2021/10/26 14:10:31;;;;;;;;;;;17.20;99.90;;;;;;4971042;28;19952;-80
2021/10/26 14:12:58;;;;;;;;;;;17.20;99.90;;;;;;4971258;28;19971;-80
2021/10/26 14:15:24;;;;;;;;;;;17.10;99.90;;;;;;4974941;28;19910;-81
2021/10/26 14:17:51;;;;;;;;;;;17.10;99.90;;;;;;4974869;28;19925;-79
2021/10/26 14:20:24;;;;;;;;;;;17.10;99.90;;;;;;4974319;28;20480;-80
2021/10/26 14:22:51;;;;;;;;;;;17.20;99.90;;;;;;4974663;28;19910;-78
2021/10/26 14:25:20;;;;;;;;;;;17.30;99.90;;;;;;4974205;28;20316;-80
2021/10/26 14:27:49;;;;;;;;;;;17.30;99.90;;;;;;4974440;28;20009;-79
2021/10/26 14:30:16;;;;;;;;;;;17.20;99.90;;;;;;4974227;28;19911;-80
2021/10/26 14:32:50;;;;;;;;;;;17.20;99.90;;;;;;4974667;28;19957;-80
2021/10/26 14:35:25;;;;;;;;;;;17.30;99.90;;;;;;4974548;28;19946;-81
2021/10/26 14:56:22;;;;;;;;;;;17.20;99.90;;;;;;4974838;28;19967;-80
2021/10/26 14:58:49;;;;;;;;;;;17.20;99.90;;;;;;4975569;28;20242;-81
2021/10/26 15:01:15;;;;;;;;;;;17.20;99.90;;;;;;4975785;28;19917;-81
2021/10/26 15:03:42;;;;;;;;;;;17.20;99.90;;;;;;4975536;28;20400;-79